sensor_id;sensor_type;location;lat;lon;timestamp;P1;durP1;ratioP1;P2;durP2;ratioP2
40453;SDS011;26160;51.858;4.398;2022-07-23T00:00:42;1.50;;;1.30;;
40453;SDS011;26160;51.858;4.398;2022-07-23T00:03:08;2.35;;;1.45;;
40453;SDS011;26160;51.858;4.398;2022-07-23T00:05:34;2.58;;;1.48;;
40453;SDS011;26160;51.858;4.398;2022-07-23T00:08:01;2.10;;;1.20;;
40453;SDS011;26160;51.858;4.398;2022-07-23T00:10:27;2.17;;;1.45;;
40453;SDS011;26160;51.858;4.398;2022-07-23T00:12:53;2.65;;;1.20;;
40453;SDS011;26160;51.858;4.398;2022-07-23T00:15:19;3.35;;;1.52;;
40453;SDS011;26160;51.858;4.398;2022-07-23T00:17:45;3.63;;;1.30;;
40453;SDS011;26160;51.858;4.398;2022-07-23T00:20:11;2.10;;;1.20;;
40453;SDS011;26160;51.858;4.398;2022-07-23T00:22:45;2.78;;;1.98;;
40453;SDS011;26160;51.858;4.398;2022-07-23T00:25:18;4.45;;;1.30;;
40453;SDS011;26160;51.858;4.398;2022-07-23T00:27:48;2.92;;;1.45;;
40453;SDS011;26160;51.858;4.398;2022-07-23T00:30:14;2.58;;;1.38;;
40453;SDS011;26160;51.858;4.398;2022-07-23T00:32:47;3.33;;;1.63;;
40453;SDS011;26160;51.858;4.398;2022-07-23T00:35:21;2.80;;;1.30;;
40453;SDS011;26160;51.858;4.398;2022-07-23T00:37:47;4.45;;;1.55;;
40453;SDS011;26160;51.858;4.398;2022-07-23T00:40:14;2.20;;;1.50;;
40453;SDS011;26160;51.858;4.398;2022-07-23T00:42:40;2.70;;;1.50;;
40453;SDS011;26160;51.858;4.398;2022-07-23T00:45:07;4.30;;;1.58;;
40453;SDS011;26160;51.858;4.398;2022-07-23T00:47:33;3.38;;;1.45;;
40453;SDS011;26160;51.858;4.398;2022-07-23T00:50:00;2.58;;;1.30;;
40453;SDS011;26160;51.858;4.398;2022-07-23T00:52:28;2.35;;;1.52;;
40453;SDS011;26160;51.858;4.398;2022-07-23T00:54:54;3.53;;;1.50;;
40453;SDS011;26160;51.858;4.398;2022-07-23T00:57:21;4.03;;;1.25;;
40453;SDS011;26160;51.858;4.398;2022-07-23T00:59:47;6.07;;;1.33;;
40453;SDS011;26160;51.858;4.398;2022-07-23T01:02:13;2.47;;;1.70;;
40453;SDS011;26160;51.858;4.398;2022-07-23T01:04:39;2.20;;;1.40;;
40453;SDS011;26160;51.858;4.398;2022-07-23T01:07:05;2.17;;;1.60;;
40453;SDS011;26160;51.858;4.398;2022-07-23T01:09:32;3.83;;;1.88;;
40453;SDS011;26160;51.858;4.398;2022-07-23T01:11:59;1.92;;;1.50;;
40453;SDS011;26160;51.858;4.398;2022-07-23T01:14:25;3.28;;;1.80;;
40453;SDS011;26160;51.858;4.398;2022-07-23T01:16:52;4.57;;;2.38;;
40453;SDS011;26160;51.858;4.398;2022-07-23T01:19:18;2.55;;;1.73;;
40453;SDS011;26160;51.858;4.398;2022-07-23T01:21:48;4.53;;;2.10;;
40453;SDS011;26160;51.858;4.398;2022-07-23T01:24:15;3.25;;;1.60;;
40453;SDS011;26160;51.858;4.398;2022-07-23T01:26:45;2.63;;;1.67;;
40453;SDS011;26160;51.858;4.398;2022-07-23T01:29:12;3.45;;;1.70;;
40453;SDS011;26160;51.858;4.398;2022-07-23T01:31:39;4.63;;;1.80;;
40453;SDS011;26160;51.858;4.398;2022-07-23T01:34:06;3.58;;;1.92;;
40453;SDS011;26160;51.858;4.398;2022-07-23T01:36:33;5.13;;;2.25;;
40453;SDS011;26160;51.858;4.398;2022-07-23T01:39:00;3.85;;;1.88;;
40453;SDS011;26160;51.858;4.398;2022-07-23T01:41:26;3.92;;;1.88;;
40453;SDS011;26160;51.858;4.398;2022-07-23T01:43:52;2.00;;;1.80;;
40453;SDS011;26160;51.858;4.398;2022-07-23T01:46:18;3.03;;;2.10;;
40453;SDS011;26160;51.858;4.398;2022-07-23T01:48:44;2.40;;;1.83;;
40453;SDS011;26160;51.858;4.398;2022-07-23T01:51:10;4.60;;;2.03;;
40453;SDS011;26160;51.858;4.398;2022-07-23T01:53:36;2.35;;;2.00;;
40453;SDS011;26160;51.858;4.398;2022-07-23T01:56:03;4.28;;;2.15;;
40453;SDS011;26160;51.858;4.398;2022-07-23T01:58:29;4.38;;;2.22;;
40453;SDS011;26160;51.858;4.398;2022-07-23T02:00:55;3.70;;;2.00;;
40453;SDS011;26160;51.858;4.398;2022-07-23T02:03:22;2.47;;;1.95;;
40453;SDS011;26160;51.858;4.398;2022-07-23T02:05:48;2.83;;;1.90;;
40453;SDS011;26160;51.858;4.398;2022-07-23T02:08:14;8.70;;;2.50;;
40453;SDS011;26160;51.858;4.398;2022-07-23T02:10:41;3.45;;;2.42;;
40453;SDS011;26160;51.858;4.398;2022-07-23T02:13:07;3.20;;;2.38;;
40453;SDS011;26160;51.858;4.398;2022-07-23T02:15:33;4.95;;;2.92;;
40453;SDS011;26160;51.858;4.398;2022-07-23T02:18:00;4.47;;;2.53;;
40453;SDS011;26160;51.858;4.398;2022-07-23T02:20:26;2.95;;;2.08;;
40453;SDS011;26160;51.858;4.398;2022-07-23T02:22:52;3.35;;;2.00;;
40453;SDS011;26160;51.858;4.398;2022-07-23T02:25:18;3.75;;;2.35;;
40453;SDS011;26160;51.858;4.398;2022-07-23T02:27:44;2.85;;;1.95;;
40453;SDS011;26160;51.858;4.398;2022-07-23T02:30:10;3.40;;;2.03;;
40453;SDS011;26160;51.858;4.398;2022-07-23T02:32:37;2.97;;;1.83;;
40453;SDS011;26160;51.858;4.398;2022-07-23T02:35:05;1.92;;;1.70;;
40453;SDS011;26160;51.858;4.398;2022-07-23T02:37:31;2.33;;;1.70;;
40453;SDS011;26160;51.858;4.398;2022-07-23T02:39:58;5.20;;;2.10;;
40453;SDS011;26160;51.858;4.398;2022-07-23T02:42:24;3.10;;;2.35;;
40453;SDS011;26160;51.858;4.398;2022-07-23T02:44:51;3.25;;;2.05;;
40453;SDS011;26160;51.858;4.398;2022-07-23T02:47:17;3.65;;;2.20;;
40453;SDS011;26160;51.858;4.398;2022-07-23T02:49:43;6.70;;;2.30;;
40453;SDS011;26160;51.858;4.398;2022-07-23T02:52:09;4.28;;;1.77;;
40453;SDS011;26160;51.858;4.398;2022-07-23T02:54:36;4.22;;;2.15;;
40453;SDS011;26160;51.858;4.398;2022-07-23T02:57:03;3.65;;;1.83;;
40453;SDS011;26160;51.858;4.398;2022-07-23T02:59:30;4.18;;;2.30;;
40453;SDS011;26160;51.858;4.398;2022-07-23T03:01:56;3.42;;;2.40;;
40453;SDS011;26160;51.858;4.398;2022-07-23T03:04:22;2.55;;;2.28;;
40453;SDS011;26160;51.858;4.398;2022-07-23T03:06:48;4.57;;;2.00;;
40453;SDS011;26160;51.858;4.398;2022-07-23T03:09:14;3.97;;;2.05;;
40453;SDS011;26160;51.858;4.398;2022-07-23T03:11:40;2.55;;;1.88;;
40453;SDS011;26160;51.858;4.398;2022-07-23T03:14:06;3.75;;;2.00;;
40453;SDS011;26160;51.858;4.398;2022-07-23T03:16:33;3.00;;;1.98;;
40453;SDS011;26160;51.858;4.398;2022-07-23T03:18:59;3.35;;;2.13;;
40453;SDS011;26160;51.858;4.398;2022-07-23T03:21:25;3.47;;;1.83;;
40453;SDS011;26160;51.858;4.398;2022-07-23T03:23:51;3.20;;;2.40;;
40453;SDS011;26160;51.858;4.398;2022-07-23T03:26:17;4.05;;;2.20;;
40453;SDS011;26160;51.858;4.398;2022-07-23T03:28:43;2.80;;;2.10;;
40453;SDS011;26160;51.858;4.398;2022-07-23T03:31:09;4.15;;;2.40;;
40453;SDS011;26160;51.858;4.398;2022-07-23T03:33:35;3.83;;;2.17;;
40453;SDS011;26160;51.858;4.398;2022-07-23T03:36:01;2.22;;;1.80;;
40453;SDS011;26160;51.858;4.398;2022-07-23T03:38:27;2.17;;;1.92;;
40453;SDS011;26160;51.858;4.398;2022-07-23T03:40:53;3.65;;;2.47;;
40453;SDS011;26160;51.858;4.398;2022-07-23T03:43:19;3.55;;;2.58;;
40453;SDS011;26160;51.858;4.398;2022-07-23T03:45:46;3.00;;;1.92;;
40453;SDS011;26160;51.858;4.398;2022-07-23T03:48:12;3.55;;;2.28;;
40453;SDS011;26160;51.858;4.398;2022-07-23T03:50:38;3.83;;;2.50;;
40453;SDS011;26160;51.858;4.398;2022-07-23T03:53:04;3.45;;;2.22;;
40453;SDS011;26160;51.858;4.398;2022-07-23T03:55:30;1.80;;;1.70;;
40453;SDS011;26160;51.858;4.398;2022-07-23T03:57:56;2.83;;;1.70;;
40453;SDS011;26160;51.858;4.398;2022-07-23T04:00:22;2.33;;;1.90;;
40453;SDS011;26160;51.858;4.398;2022-07-23T04:02:48;2.65;;;1.95;;
40453;SDS011;26160;51.858;4.398;2022-07-23T04:05:14;3.35;;;2.10;;
40453;SDS011;26160;51.858;4.398;2022-07-23T04:07:40;2.97;;;2.00;;
40453;SDS011;26160;51.858;4.398;2022-07-23T04:10:06;2.22;;;1.95;;
40453;SDS011;26160;51.858;4.398;2022-07-23T04:12:33;3.22;;;1.90;;
40453;SDS011;26160;51.858;4.398;2022-07-23T04:14:59;3.38;;;2.28;;
40453;SDS011;26160;51.858;4.398;2022-07-23T04:17:25;4.10;;;2.28;;
40453;SDS011;26160;51.858;4.398;2022-07-23T04:19:52;2.22;;;2.03;;
40453;SDS011;26160;51.858;4.398;2022-07-23T04:22:18;1.92;;;1.75;;
40453;SDS011;26160;51.858;4.398;2022-07-23T04:24:44;2.83;;;1.83;;
40453;SDS011;26160;51.858;4.398;2022-07-23T04:27:10;4.40;;;2.28;;
40453;SDS011;26160;51.858;4.398;2022-07-23T04:29:36;1.75;;;1.65;;
40453;SDS011;26160;51.858;4.398;2022-07-23T04:32:02;3.08;;;2.25;;
40453;SDS011;26160;51.858;4.398;2022-07-23T04:34:28;2.47;;;2.10;;
40453;SDS011;26160;51.858;4.398;2022-07-23T04:36:54;2.90;;;1.73;;
40453;SDS011;26160;51.858;4.398;2022-07-23T04:39:21;2.72;;;2.10;;
40453;SDS011;26160;51.858;4.398;2022-07-23T04:41:47;4.28;;;2.40;;
40453;SDS011;26160;51.858;4.398;2022-07-23T04:44:13;2.60;;;2.35;;
40453;SDS011;26160;51.858;4.398;2022-07-23T04:46:39;2.30;;;2.00;;
40453;SDS011;26160;51.858;4.398;2022-07-23T04:49:05;2.65;;;2.00;;
40453;SDS011;26160;51.858;4.398;2022-07-23T04:51:31;2.20;;;1.80;;
40453;SDS011;26160;51.858;4.398;2022-07-23T04:53:57;2.40;;;2.20;;
40453;SDS011;26160;51.858;4.398;2022-07-23T04:56:23;4.80;;;2.50;;
40453;SDS011;26160;51.858;4.398;2022-07-23T04:58:49;3.00;;;2.30;;
40453;SDS011;26160;51.858;4.398;2022-07-23T05:01:15;2.35;;;2.15;;
40453;SDS011;26160;51.858;4.398;2022-07-23T05:03:41;2.28;;;2.00;;
40453;SDS011;26160;51.858;4.398;2022-07-23T05:06:08;4.43;;;2.58;;
40453;SDS011;26160;51.858;4.398;2022-07-23T05:08:34;4.32;;;2.08;;
40453;SDS011;26160;51.858;4.398;2022-07-23T05:11:00;5.70;;;2.88;;
40453;SDS011;26160;51.858;4.398;2022-07-23T05:13:26;3.95;;;2.40;;
40453;SDS011;26160;51.858;4.398;2022-07-23T05:15:52;4.72;;;2.45;;
40453;SDS011;26160;51.858;4.398;2022-07-23T05:18:18;4.13;;;3.00;;
40453;SDS011;26160;51.858;4.398;2022-07-23T05:20:44;6.30;;;2.65;;
40453;SDS011;26160;51.858;4.398;2022-07-23T05:23:10;3.10;;;2.80;;
40453;SDS011;26160;51.858;4.398;2022-07-23T05:25:36;2.78;;;2.40;;
40453;SDS011;26160;51.858;4.398;2022-07-23T05:28:03;3.25;;;2.90;;
40453;SDS011;26160;51.858;4.398;2022-07-23T05:30:29;3.38;;;2.13;;
40453;SDS011;26160;51.858;4.398;2022-07-23T05:32:55;3.28;;;2.75;;
40453;SDS011;26160;51.858;4.398;2022-07-23T05:35:21;4.65;;;3.10;;
40453;SDS011;26160;51.858;4.398;2022-07-23T05:37:47;4.63;;;2.40;;
40453;SDS011;26160;51.858;4.398;2022-07-23T05:40:13;5.28;;;2.20;;
40453;SDS011;26160;51.858;4.398;2022-07-23T05:42:40;4.70;;;2.38;;
40453;SDS011;26160;51.858;4.398;2022-07-23T05:45:07;2.72;;;2.22;;
40453;SDS011;26160;51.858;4.398;2022-07-23T05:47:40;2.30;;;1.95;;
40453;SDS011;26160;51.858;4.398;2022-07-23T05:50:07;3.88;;;1.98;;
40453;SDS011;26160;51.858;4.398;2022-07-23T05:52:34;2.70;;;2.00;;
40453;SDS011;26160;51.858;4.398;2022-07-23T05:55:00;4.32;;;2.00;;
40453;SDS011;26160;51.858;4.398;2022-07-23T05:57:26;2.53;;;1.30;;
40453;SDS011;26160;51.858;4.398;2022-07-23T05:59:52;2.65;;;1.55;;
40453;SDS011;26160;51.858;4.398;2022-07-23T06:02:18;2.03;;;1.33;;
40453;SDS011;26160;51.858;4.398;2022-07-23T06:04:44;3.92;;;1.85;;
40453;SDS011;26160;51.858;4.398;2022-07-23T06:07:11;3.30;;;1.63;;
40453;SDS011;26160;51.858;4.398;2022-07-23T06:09:37;5.30;;;1.92;;
40453;SDS011;26160;51.858;4.398;2022-07-23T06:12:03;5.20;;;1.73;;
40453;SDS011;26160;51.858;4.398;2022-07-23T06:14:30;2.85;;;1.35;;
40453;SDS011;26160;51.858;4.398;2022-07-23T06:16:56;4.90;;;1.42;;
40453;SDS011;26160;51.858;4.398;2022-07-23T06:19:22;3.03;;;1.17;;
40453;SDS011;26160;51.858;4.398;2022-07-23T06:21:48;1.60;;;1.00;;
40453;SDS011;26160;51.858;4.398;2022-07-23T06:24:14;1.67;;;1.27;;
40453;SDS011;26160;51.858;4.398;2022-07-23T06:26:40;1.98;;;1.10;;
40453;SDS011;26160;51.858;4.398;2022-07-23T06:29:06;3.88;;;1.33;;
40453;SDS011;26160;51.858;4.398;2022-07-23T06:31:32;3.05;;;1.20;;
40453;SDS011;26160;51.858;4.398;2022-07-23T06:33:59;2.90;;;1.15;;
40453;SDS011;26160;51.858;4.398;2022-07-23T06:36:25;3.30;;;0.90;;
40453;SDS011;26160;51.858;4.398;2022-07-23T06:38:51;2.17;;;1.23;;
40453;SDS011;26160;51.858;4.398;2022-07-23T06:41:17;3.00;;;1.10;;
40453;SDS011;26160;51.858;4.398;2022-07-23T06:43:43;2.92;;;1.48;;
40453;SDS011;26160;51.858;4.398;2022-07-23T06:46:09;2.45;;;1.25;;
40453;SDS011;26160;51.858;4.398;2022-07-23T06:48:35;5.90;;;1.40;;
40453;SDS011;26160;51.858;4.398;2022-07-23T06:51:02;4.85;;;1.67;;
40453;SDS011;26160;51.858;4.398;2022-07-23T06:53:28;1.10;;;0.80;;
40453;SDS011;26160;51.858;4.398;2022-07-23T06:55:55;4.53;;;1.17;;
40453;SDS011;26160;51.858;4.398;2022-07-23T06:58:21;2.05;;;0.93;;
40453;SDS011;26160;51.858;4.398;2022-07-23T07:00:47;1.90;;;0.93;;
40453;SDS011;26160;51.858;4.398;2022-07-23T07:03:13;2.55;;;1.00;;
40453;SDS011;26160;51.858;4.398;2022-07-23T07:05:39;3.30;;;0.98;;
40453;SDS011;26160;51.858;4.398;2022-07-23T07:08:05;1.92;;;0.70;;
40453;SDS011;26160;51.858;4.398;2022-07-23T07:10:32;3.33;;;1.10;;
40453;SDS011;26160;51.858;4.398;2022-07-23T07:12:58;3.67;;;1.10;;
40453;SDS011;26160;51.858;4.398;2022-07-23T07:15:24;2.35;;;1.10;;
40453;SDS011;26160;51.858;4.398;2022-07-23T07:17:50;1.63;;;0.80;;
40453;SDS011;26160;51.858;4.398;2022-07-23T07:20:16;1.58;;;0.90;;
40453;SDS011;26160;51.858;4.398;2022-07-23T07:22:42;4.45;;;1.08;;
40453;SDS011;26160;51.858;4.398;2022-07-23T07:25:08;3.13;;;1.20;;
40453;SDS011;26160;51.858;4.398;2022-07-23T07:27:34;2.55;;;1.25;;
40453;SDS011;26160;51.858;4.398;2022-07-23T07:30:02;3.28;;;1.23;;
40453;SDS011;26160;51.858;4.398;2022-07-23T07:34:59;3.90;;;1.45;;
40453;SDS011;26160;51.858;4.398;2022-07-23T07:37:25;1.95;;;1.40;;
40453;SDS011;26160;51.858;4.398;2022-07-23T07:39:51;2.35;;;1.27;;
40453;SDS011;26160;51.858;4.398;2022-07-23T07:42:17;2.63;;;0.93;;
40453;SDS011;26160;51.858;4.398;2022-07-23T07:44:43;2.10;;;1.10;;
40453;SDS011;26160;51.858;4.398;2022-07-23T07:47:09;2.25;;;1.00;;
40453;SDS011;26160;51.858;4.398;2022-07-23T07:49:35;3.80;;;1.10;;
40453;SDS011;26160;51.858;4.398;2022-07-23T07:52:02;2.33;;;1.15;;
40453;SDS011;26160;51.858;4.398;2022-07-23T07:54:28;1.80;;;1.17;;
40453;SDS011;26160;51.858;4.398;2022-07-23T07:56:54;2.72;;;1.02;;
40453;SDS011;26160;51.858;4.398;2022-07-23T07:59:20;1.73;;;1.27;;
40453;SDS011;26160;51.858;4.398;2022-07-23T08:01:46;2.25;;;1.02;;
40453;SDS011;26160;51.858;4.398;2022-07-23T08:04:13;5.30;;;1.30;;
40453;SDS011;26160;51.858;4.398;2022-07-23T08:06:39;1.50;;;1.00;;
40453;SDS011;26160;51.858;4.398;2022-07-23T08:09:05;2.83;;;1.15;;
40453;SDS011;26160;51.858;4.398;2022-07-23T08:11:31;2.75;;;0.90;;
40453;SDS011;26160;51.858;4.398;2022-07-23T08:13:57;3.35;;;1.02;;
40453;SDS011;26160;51.858;4.398;2022-07-23T08:16:23;2.70;;;1.67;;
40453;SDS011;26160;51.858;4.398;2022-07-23T08:18:49;1.45;;;1.05;;
40453;SDS011;26160;51.858;4.398;2022-07-23T08:21:15;1.90;;;0.90;;
40453;SDS011;26160;51.858;4.398;2022-07-23T08:23:41;4.07;;;1.10;;
40453;SDS011;26160;51.858;4.398;2022-07-23T08:26:08;4.07;;;0.88;;
40453;SDS011;26160;51.858;4.398;2022-07-23T08:28:34;2.80;;;1.10;;
40453;SDS011;26160;51.858;4.398;2022-07-23T08:31:00;3.47;;;1.25;;
40453;SDS011;26160;51.858;4.398;2022-07-23T08:33:27;1.88;;;1.20;;
40453;SDS011;26160;51.858;4.398;2022-07-23T08:35:53;2.60;;;1.23;;
40453;SDS011;26160;51.858;4.398;2022-07-23T08:38:20;3.15;;;1.00;;
40453;SDS011;26160;51.858;4.398;2022-07-23T08:40:48;2.72;;;1.20;;
40453;SDS011;26160;51.858;4.398;2022-07-23T08:43:19;4.10;;;1.33;;
40453;SDS011;26160;51.858;4.398;2022-07-23T08:45:48;3.13;;;0.90;;
40453;SDS011;26160;51.858;4.398;2022-07-23T08:48:20;2.15;;;1.27;;
40453;SDS011;26160;51.858;4.398;2022-07-23T08:50:51;2.88;;;1.20;;
40453;SDS011;26160;51.858;4.398;2022-07-23T08:53:19;2.35;;;1.23;;
40453;SDS011;26160;51.858;4.398;2022-07-23T08:55:47;3.22;;;1.20;;
40453;SDS011;26160;51.858;4.398;2022-07-23T08:58:14;4.80;;;1.25;;
40453;SDS011;26160;51.858;4.398;2022-07-23T09:00:41;3.28;;;1.10;;
40453;SDS011;26160;51.858;4.398;2022-07-23T09:03:13;2.70;;;1.08;;
40453;SDS011;26160;51.858;4.398;2022-07-23T09:05:42;4.68;;;1.30;;
40453;SDS011;26160;51.858;4.398;2022-07-23T09:08:11;2.20;;;1.20;;
40453;SDS011;26160;51.858;4.398;2022-07-23T09:13:23;2.75;;;1.17;;
40453;SDS011;26160;51.858;4.398;2022-07-23T09:16:08;4.82;;;1.38;;
40453;SDS011;26160;51.858;4.398;2022-07-23T09:18:40;3.25;;;1.55;;
40453;SDS011;26160;51.858;4.398;2022-07-23T09:21:16;2.38;;;1.30;;
40453;SDS011;26160;51.858;4.398;2022-07-23T09:23:51;1.77;;;1.10;;
40453;SDS011;26160;51.858;4.398;2022-07-23T09:26:25;2.25;;;1.20;;
40453;SDS011;26160;51.858;4.398;2022-07-23T09:36:47;2.08;;;0.90;;
40453;SDS011;26160;51.858;4.398;2022-07-23T09:39:15;4.55;;;1.30;;
40453;SDS011;26160;51.858;4.398;2022-07-23T09:41:55;1.88;;;1.10;;
40453;SDS011;26160;51.858;4.398;2022-07-23T09:44:22;3.00;;;1.25;;
40453;SDS011;26160;51.858;4.398;2022-07-23T09:46:49;3.95;;;1.17;;
40453;SDS011;26160;51.858;4.398;2022-07-23T09:49:20;1.30;;;1.02;;
40453;SDS011;26160;51.858;4.398;2022-07-23T09:51:55;3.60;;;1.00;;
40453;SDS011;26160;51.858;4.398;2022-07-23T09:54:38;2.40;;;1.15;;
40453;SDS011;26160;51.858;4.398;2022-07-23T09:59:41;3.33;;;1.27;;
40453;SDS011;26160;51.858;4.398;2022-07-23T10:02:09;1.50;;;0.90;;
40453;SDS011;26160;51.858;4.398;2022-07-23T10:04:37;1.75;;;1.00;;
40453;SDS011;26160;51.858;4.398;2022-07-23T10:07:05;1.73;;;0.82;;
40453;SDS011;26160;51.858;4.398;2022-07-23T10:09:34;6.15;;;1.48;;
40453;SDS011;26160;51.858;4.398;2022-07-23T10:12:03;2.47;;;1.10;;
40453;SDS011;26160;51.858;4.398;2022-07-23T10:14:35;4.00;;;1.20;;
40453;SDS011;26160;51.858;4.398;2022-07-23T10:17:03;2.90;;;1.20;;
40453;SDS011;26160;51.858;4.398;2022-07-23T10:19:30;4.40;;;0.85;;
40453;SDS011;26160;51.858;4.398;2022-07-23T10:21:58;5.15;;;0.95;;
40453;SDS011;26160;51.858;4.398;2022-07-23T10:24:40;3.20;;;1.10;;
40453;SDS011;26160;51.858;4.398;2022-07-23T10:30:02;2.53;;;1.00;;
40453;SDS011;26160;51.858;4.398;2022-07-23T10:38:07;3.15;;;1.00;;
40453;SDS011;26160;51.858;4.398;2022-07-23T10:41:00;3.53;;;1.27;;
40453;SDS011;26160;51.858;4.398;2022-07-23T10:43:28;2.78;;;1.10;;
40453;SDS011;26160;51.858;4.398;2022-07-23T10:45:55;4.32;;;1.17;;
40453;SDS011;26160;51.858;4.398;2022-07-23T10:48:42;1.80;;;0.88;;
40453;SDS011;26160;51.858;4.398;2022-07-23T10:51:09;3.67;;;1.25;;
40453;SDS011;26160;51.858;4.398;2022-07-23T10:56:15;2.97;;;1.40;;
40453;SDS011;26160;51.858;4.398;2022-07-23T10:58:45;4.00;;;1.67;;
40453;SDS011;26160;51.858;4.398;2022-07-23T11:01:34;2.00;;;1.00;;
40453;SDS011;26160;51.858;4.398;2022-07-23T11:04:02;1.58;;;1.13;;
40453;SDS011;26160;51.858;4.398;2022-07-23T11:09:32;2.50;;;1.10;;
40453;SDS011;26160;51.858;4.398;2022-07-23T11:14:57;2.35;;;1.40;;
40453;SDS011;26160;51.858;4.398;2022-07-23T11:17:23;1.50;;;0.95;;
40453;SDS011;26160;51.858;4.398;2022-07-23T11:22:35;1.35;;;0.80;;
40453;SDS011;26160;51.858;4.398;2022-07-23T11:25:02;3.47;;;1.10;;
40453;SDS011;26160;51.858;4.398;2022-07-23T11:27:42;1.88;;;0.80;;
40453;SDS011;26160;51.858;4.398;2022-07-23T11:30:10;2.85;;;0.80;;
40453;SDS011;26160;51.858;4.398;2022-07-23T11:35:35;2.00;;;1.05;;
40453;SDS011;26160;51.858;4.398;2022-07-23T11:38:13;2.95;;;0.80;;
40453;SDS011;26160;51.858;4.398;2022-07-23T11:40:41;1.65;;;1.02;;
40453;SDS011;26160;51.858;4.398;2022-07-23T11:43:10;2.75;;;0.90;;
40453;SDS011;26160;51.858;4.398;2022-07-23T11:45:37;1.73;;;1.02;;
40453;SDS011;26160;51.858;4.398;2022-07-23T11:48:06;0.82;;;0.82;;
40453;SDS011;26160;51.858;4.398;2022-07-23T11:50:34;1.60;;;0.98;;
40453;SDS011;26160;51.858;4.398;2022-07-23T11:53:01;2.80;;;1.10;;
40453;SDS011;26160;51.858;4.398;2022-07-23T11:55:28;1.33;;;1.02;;
40453;SDS011;26160;51.858;4.398;2022-07-23T11:57:54;3.60;;;1.27;;
40453;SDS011;26160;51.858;4.398;2022-07-23T12:00:22;2.13;;;0.82;;
40453;SDS011;26160;51.858;4.398;2022-07-23T12:02:51;1.48;;;1.00;;
40453;SDS011;26160;51.858;4.398;2022-07-23T12:05:20;1.52;;;1.08;;
40453;SDS011;26160;51.858;4.398;2022-07-23T12:07:48;2.60;;;0.80;;
40453;SDS011;26160;51.858;4.398;2022-07-23T12:10:17;2.58;;;1.40;;
40453;SDS011;26160;51.858;4.398;2022-07-23T12:12:53;1.35;;;0.90;;
40453;SDS011;26160;51.858;4.398;2022-07-23T12:15:23;0.98;;;0.90;;
40453;SDS011;26160;51.858;4.398;2022-07-23T12:17:51;4.78;;;1.30;;
40453;SDS011;26160;51.858;4.398;2022-07-23T12:20:21;6.28;;;1.30;;
40453;SDS011;26160;51.858;4.398;2022-07-23T12:22:49;3.05;;;1.20;;
40453;SDS011;26160;51.858;4.398;2022-07-23T12:25:18;1.85;;;1.00;;
40453;SDS011;26160;51.858;4.398;2022-07-23T12:27:46;1.48;;;0.90;;
40453;SDS011;26160;51.858;4.398;2022-07-23T12:30:26;2.83;;;1.20;;
40453;SDS011;26160;51.858;4.398;2022-07-23T12:32:56;3.03;;;1.05;;
40453;SDS011;26160;51.858;4.398;2022-07-23T12:35:29;1.23;;;1.00;;
40453;SDS011;26160;51.858;4.398;2022-07-23T12:38:03;1.30;;;1.00;;
40453;SDS011;26160;51.858;4.398;2022-07-23T12:40:35;3.10;;;1.00;;
40453;SDS011;26160;51.858;4.398;2022-07-23T12:43:08;0.95;;;0.93;;
40453;SDS011;26160;51.858;4.398;2022-07-23T12:45:46;2.47;;;0.80;;
40453;SDS011;26160;51.858;4.398;2022-07-23T12:48:18;1.13;;;0.88;;
40453;SDS011;26160;51.858;4.398;2022-07-23T12:50:54;1.58;;;0.85;;
40453;SDS011;26160;51.858;4.398;2022-07-23T12:53:30;1.75;;;0.70;;
40453;SDS011;26160;51.858;4.398;2022-07-23T12:56:06;1.20;;;0.82;;
40453;SDS011;26160;51.858;4.398;2022-07-23T12:58:48;1.70;;;0.95;;
40453;SDS011;26160;51.858;4.398;2022-07-23T13:06:35;2.55;;;0.98;;
40453;SDS011;26160;51.858;4.398;2022-07-23T13:09:09;1.88;;;0.70;;
40453;SDS011;26160;51.858;4.398;2022-07-23T13:11:40;1.67;;;0.60;;
40453;SDS011;26160;51.858;4.398;2022-07-23T13:14:07;3.22;;;0.75;;
40453;SDS011;26160;51.858;4.398;2022-07-23T13:16:33;1.33;;;0.90;;
40453;SDS011;26160;51.858;4.398;2022-07-23T13:18:59;0.85;;;0.85;;
40453;SDS011;26160;51.858;4.398;2022-07-23T13:21:26;3.03;;;0.77;;
40453;SDS011;26160;51.858;4.398;2022-07-23T13:23:53;0.90;;;0.90;;
40453;SDS011;26160;51.858;4.398;2022-07-23T13:26:20;0.80;;;0.70;;
40453;SDS011;26160;51.858;4.398;2022-07-23T13:28:46;1.00;;;0.70;;
40453;SDS011;26160;51.858;4.398;2022-07-23T13:31:12;1.63;;;0.80;;
40453;SDS011;26160;51.858;4.398;2022-07-23T13:33:39;1.15;;;0.45;;
40453;SDS011;26160;51.858;4.398;2022-07-23T13:36:05;0.70;;;0.65;;
40453;SDS011;26160;51.858;4.398;2022-07-23T13:38:31;1.40;;;0.70;;
40453;SDS011;26160;51.858;4.398;2022-07-23T13:40:58;3.10;;;0.80;;
40453;SDS011;26160;51.858;4.398;2022-07-23T13:43:24;3.15;;;0.90;;
40453;SDS011;26160;51.858;4.398;2022-07-23T13:45:51;1.08;;;0.70;;
40453;SDS011;26160;51.858;4.398;2022-07-23T13:48:18;1.10;;;0.85;;
40453;SDS011;26160;51.858;4.398;2022-07-23T13:50:45;1.20;;;0.68;;
40453;SDS011;26160;51.858;4.398;2022-07-23T13:53:16;2.13;;;0.73;;
40453;SDS011;26160;51.858;4.398;2022-07-23T13:55:43;1.13;;;0.75;;
40453;SDS011;26160;51.858;4.398;2022-07-23T13:58:10;2.55;;;0.95;;
40453;SDS011;26160;51.858;4.398;2022-07-23T14:00:38;2.92;;;1.08;;
40453;SDS011;26160;51.858;4.398;2022-07-23T14:03:05;1.20;;;1.08;;
40453;SDS011;26160;51.858;4.398;2022-07-23T14:05:31;3.28;;;0.82;;
40453;SDS011;26160;51.858;4.398;2022-07-23T14:07:58;1.35;;;0.90;;
40453;SDS011;26160;51.858;4.398;2022-07-23T14:10:24;1.42;;;0.80;;
40453;SDS011;26160;51.858;4.398;2022-07-23T14:12:51;1.67;;;0.90;;
40453;SDS011;26160;51.858;4.398;2022-07-23T14:15:23;2.00;;;1.20;;
40453;SDS011;26160;51.858;4.398;2022-07-23T14:17:52;1.98;;;0.93;;
40453;SDS011;26160;51.858;4.398;2022-07-23T14:20:19;1.95;;;1.13;;
40453;SDS011;26160;51.858;4.398;2022-07-23T14:22:45;1.00;;;0.90;;
40453;SDS011;26160;51.858;4.398;2022-07-23T14:25:11;2.70;;;0.75;;
40453;SDS011;26160;51.858;4.398;2022-07-23T14:27:38;1.45;;;1.33;;
40453;SDS011;26160;51.858;4.398;2022-07-23T14:30:05;2.55;;;1.65;;
40453;SDS011;26160;51.858;4.398;2022-07-23T14:32:32;1.35;;;1.17;;
40453;SDS011;26160;51.858;4.398;2022-07-23T14:34:59;1.83;;;1.20;;
40453;SDS011;26160;51.858;4.398;2022-07-23T14:37:25;1.33;;;1.23;;
40453;SDS011;26160;51.858;4.398;2022-07-23T14:39:51;2.10;;;1.50;;
40453;SDS011;26160;51.858;4.398;2022-07-23T14:42:17;2.17;;;1.55;;
40453;SDS011;26160;51.858;4.398;2022-07-23T14:44:44;1.48;;;1.00;;
40453;SDS011;26160;51.858;4.398;2022-07-23T14:47:11;3.20;;;1.60;;
40453;SDS011;26160;51.858;4.398;2022-07-23T14:49:37;2.45;;;1.50;;
40453;SDS011;26160;51.858;4.398;2022-07-23T14:52:03;2.30;;;1.40;;
40453;SDS011;26160;51.858;4.398;2022-07-23T14:54:30;3.85;;;2.20;;
40453;SDS011;26160;51.858;4.398;2022-07-23T14:56:57;2.20;;;1.55;;
40453;SDS011;26160;51.858;4.398;2022-07-23T14:59:24;2.88;;;2.00;;
40453;SDS011;26160;51.858;4.398;2022-07-23T15:01:51;1.73;;;1.20;;
40453;SDS011;26160;51.858;4.398;2022-07-23T15:04:17;1.63;;;1.38;;
40453;SDS011;26160;51.858;4.398;2022-07-23T15:06:44;1.55;;;1.40;;
40453;SDS011;26160;51.858;4.398;2022-07-23T15:09:10;2.42;;;1.58;;
40453;SDS011;26160;51.858;4.398;2022-07-23T15:11:36;2.22;;;1.70;;
40453;SDS011;26160;51.858;4.398;2022-07-23T15:14:03;3.15;;;1.73;;
40453;SDS011;26160;51.858;4.398;2022-07-23T15:16:30;2.55;;;1.50;;
40453;SDS011;26160;51.858;4.398;2022-07-23T15:18:56;2.88;;;2.00;;
40453;SDS011;26160;51.858;4.398;2022-07-23T15:21:22;3.38;;;2.03;;
40453;SDS011;26160;51.858;4.398;2022-07-23T15:23:48;3.03;;;2.00;;
40453;SDS011;26160;51.858;4.398;2022-07-23T15:26:14;1.80;;;1.70;;
40453;SDS011;26160;51.858;4.398;2022-07-23T15:28:41;3.20;;;1.98;;
40453;SDS011;26160;51.858;4.398;2022-07-23T15:31:07;2.50;;;1.90;;
40453;SDS011;26160;51.858;4.398;2022-07-23T15:33:33;3.05;;;2.17;;